Latest Weather Observations for Bathurst Airport

IDN60801

Issued at 6:33 pm EDT Friday 19 December 2014 (issued every 30 minutes, with the page automatically refreshed every 10 minutes)

About weather observations | Map of weather stations | Latest weather observations for NSW | Other Formats
Station Details ID: 063291 Name: BATHURST AIRPORT AWS Lat: -33.41 Lon: 149.65 Height: 744.5 m
Data from the previous 72 hours. | See also: Recent months for locations in New South Wales
Date/Time
EDT
Temp
°C
App
Temp
°C
Dew
Point
Rel
Hum
%
Delta-T
°C
Wind Press
QNH
hPa
Press
MSL
hPa
Rain
since 9 am
mm
Dir
 
Spd
km/h
Gust
km/h
Spd
kts
Gust
kts
19/06:30pm 22.8 16.8 -1.3 20 11.1 SSW 20 30 11 16 1014.4 1011.3 0.0
19/06:00pm 23.5 17.3 -0.1 21 11.1 SW 22 30 12 16 1014.1 1010.9 0.0
19/05:30pm 23.6 17.2 0.7 22 11.0 WSW 24 32 13 17 1014.1 1010.9 0.0
19/05:00pm 24.0 17.9 0.4 21 11.3 WSW 22 32 12 17 1014.0 1010.8 0.0
19/04:30pm 24.0 18.5 0.4 21 11.3 SW 19 32 10 17 1013.9 1010.7 0.0
19/04:00pm 23.5 17.6 -0.7 20 11.3 WSW 20 39 11 21 1014.0 1010.8 0.0
19/03:30pm 23.4 17.4 -1.5 19 11.4 WNW 20 30 11 16 1014.1 1010.9 0.0
19/03:00pm 23.5 16.9 -0.1 21 11.1 SW 24 32 13 17 1014.2 1011.0 0.0
19/02:30pm 23.4 17.3 2.8 26 10.3 W 24 39 13 21 1014.4 1011.3 0.0
19/02:00pm 23.3 18.7 3.8 28 9.9 WSW 17 35 9 19 1014.6 1011.4 0.0
19/01:30pm 22.4 17.0 1.4 25 10.1 WSW 19 30 10 16 1014.7 1011.5 0.0
19/01:00pm 22.4 17.4 3.5 29 9.5 WSW 19 33 10 18 1014.8 1011.6 0.0
19/12:30pm 21.7 16.5 2.4 28 9.4 WSW 19 26 10 14 1015.0 1011.8 0.0
19/12:00pm 21.5 15.5 1.2 26 9.7 W 22 39 12 21 1014.9 1011.7 0.0
19/11:30am 21.2 15.8 2.5 29 9.1 WSW 20 28 11 15 1014.9 1011.7 0.0
19/11:00am 20.8 15.3 2.1 29 9.0 WSW 20 30 11 16 1015.0 1011.8 0.0
19/10:30am 20.0 14.2 2.4 31 8.5 W 22 33 12 18 1014.8 1011.6 0.0
19/10:00am 19.8 13.9 3.9 35 7.9 WSW 24 35 13 19 1014.6 1011.4 0.0
19/09:30am 18.8 13.6 3.4 36 7.5 SW 20 28 11 15 1014.7 1011.5 0.0
19/09:00am 17.7 13.8 3.6 39 6.8 S 13 20 7 11 1014.6 1011.4 0.0
19/08:30am 17.2 14.3 4.5 43 6.3 SW 9 15 5 8 1014.4 1011.3 0.0
19/08:00am 16.6 13.2 4.0 43 6.1 SW 11 15 6 8 1014.1 1010.9 0.0
19/07:30am 15.4 12.9 3.9 46 5.5 SSW 6 9 3 5 1014.0 1010.8 0.0
19/07:00am 14.1 12.6 3.0 47 5.2 CALM 0 4 0 2 1013.8 1010.6 0.0
19/06:30am 12.0 10.5 3.0 54 4.1 CALM 0 0 0 0 1013.6 1010.4 0.0
19/06:00am 11.5 8.7 3.3 57 3.8 SSW 7 9 4 5 1013.3 1010.1 0.0
19/05:30am 10.8 7.4 4.0 63 3.2 SW 11 13 6 7 1012.7 1009.5 0.0
19/05:00am 10.6 7.1 3.6 62 3.2 SW 11 13 6 7 1012.4 1009.2 0.0
19/04:30am 10.8 8.1 2.9 58 3.6 WSW 6 9 3 5 1012.1 1008.9 0.0
19/04:00am 11.2 8.0 3.0 57 3.7 SW 9 11 5 6 1011.9 1008.6 0.0
19/03:30am 12.8 10.6 3.2 52 4.5 SW 4 7 2 4 1011.9 1008.6 0.0
19/03:00am 12.6 8.6 3.0 52 4.4 SW 13 15 7 8 1011.6 1008.4 0.0
19/02:30am 12.5 8.8 2.4 50 4.6 WSW 11 13 6 7 1011.4 1008.2 0.0
19/02:00am 15.0 10.8 1.5 40 6.2 WSW 13 15 7 8 1011.2 1008.0 0.0
19/01:30am 14.6 10.4 1.8 42 5.8 WSW 13 19 7 10 1011.1 1007.9 0.0
19/01:00am 13.8 9.9 1.1 42 5.7 WSW 11 17 6 9 1011.1 1007.9 0.0
19/12:30am 15.8 11.6 -0.8 32 7.3 NW 11 11 6 6 1010.8 1007.5 0.0
19/12:00am 16.0 12.7 -0.2 33 7.2 NNW 7 9 4 5 1010.7 1007.4 0.0
 
Date/Time
EDT
Temp
°C
App
Temp
°C
Dew
Point
Rel
Hum
%
Delta-T
°C
Wind Press
QNH
hPa
Press
MSL
hPa
Rain
since 9 am
mm
Dir
 
Spd
km/h
Gust
km/h
Spd
kts
Gust
kts
18/11:30pm 16.5 13.1 -0.7 31 7.6 NNW 7 7 4 4 1010.7 1007.4 0.0
18/11:00pm 17.0 14.9 -1.1 29 8.0 CALM 0 6 0 3 1010.7 1007.4 0.0
18/10:30pm 17.3 13.9 -0.4 30 7.9 NNW 7 9 4 5 1010.9 1007.7 0.0
18/10:00pm 18.5 15.5 -1.9 25 8.9 SW 4 7 2 4 1010.9 1007.7 0.0
18/09:30pm 19.5 14.9 -1.0 25 9.2 WSW 13 15 7 8 1010.7 1007.4 0.0
18/09:00pm 21.5 16.1 -1.7 21 10.5 WSW 17 24 9 13 1010.4 1007.1 0.0
18/08:30pm 22.4 16.3 -2.3 19 11.1 WSW 20 26 11 14 1010.0 1006.8 0.0
18/08:00pm 23.3 17.4 -2.3 18 11.6 W 19 26 10 14 1009.7 1006.5 0.0
18/07:30pm 24.7 18.6 -2.0 17 12.3 WSW 20 28 11 15 1009.4 1006.1 0.0
18/07:00pm 25.8 18.7 -1.1 17 12.7 WSW 26 33 14 18 1009.1 1005.8 0.0
18/06:30pm 26.3 18.3 -2.4 15 13.3 WSW 30 39 16 21 1008.9 1005.6 0.0
18/06:00pm 26.7 19.2 -1.2 16 13.2 WSW 28 41 15 22 1008.6 1005.4 0.0
18/05:30pm 27.5 19.2 -0.5 16 13.5 WSW 33 46 18 25 1008.1 1004.8 0.0
18/05:26pm 27.9 20.4 -1.1 15 13.9 WSW 28 46 15 25 1008.1 1004.8 0.0
18/05:00pm 28.3 19.2 -3.8 12 14.7 W 35 48 19 26 1007.9 1004.6 0.0
18/04:30pm 28.4 20.1 -1.6 14 14.3 W 32 43 17 23 1007.6 1004.3 0.0
18/04:00pm 28.9 21.3 -2.3 13 14.8 WNW 28 43 15 23 1007.9 1004.6 0.0
18/03:30pm 29.2 22.1 -1.0 14 14.6 W 26 43 14 23 1007.8 1004.5 0.0
18/03:00pm 28.9 22.3 4.4 21 13.0 WNW 28 46 15 25 1007.8 1004.5 0.0
18/02:35pm 28.7 22.2 4.9 22 12.7 WNW 28 48 15 26 1007.9 1004.6 0.0
18/02:30pm 28.7 22.4 5.5 23 12.5 WNW 28 44 15 24 1007.8 1004.5 0.0
18/02:09pm 28.6 22.3 5.5 23 12.4 WNW 28 44 15 24 1007.9 1004.6 0.0
18/02:00pm 28.9 23.9 8.0 27 11.8 W 24 35 13 19 1007.9 1004.6 0.0
18/01:30pm 28.2 24.2 9.0 30 10.9 NW 20 32 11 17 1008.1 1004.8 0.0
18/01:00pm 27.0 23.1 9.4 33 10.1 W 20 32 11 17 1008.7 1005.5 0.0
18/12:30pm 26.4 23.9 8.4 32 10.1 NW 11 20 6 11 1009.1 1005.8 0.0
18/12:00pm 25.8 23.4 10.0 37 9.1 NW 13 22 7 12 1009.6 1006.3 0.0
18/11:30am 24.7 21.6 7.4 33 9.4 NW 13 20 7 11 1009.8 1006.6 0.0
18/11:00am 23.5 22.6 12.5 50 6.5 NNW 9 19 5 10 1010.1 1006.9 0.0
18/10:30am 22.4 20.7 12.6 54 5.8 N 13 19 7 10 1010.6 1007.3 0.0
18/10:00am 22.2 20.8 13.3 57 5.3 N 13 19 7 10 1011.0 1007.8 0.0
18/09:30am 20.5 19.7 13.0 62 4.4 N 9 15 5 8 1011.1 1007.9 0.0
18/09:00am 19.2 18.9 12.7 66 3.8 N 6 13 3 7 1011.1 1007.9 0.0
18/08:30am 17.8 17.5 12.7 72 2.9 SW 6 9 3 5 1011.2 1008.0 0.0
18/08:00am 15.9 15.3 12.3 79 2.0 S 7 11 4 6 1011.1 1007.9 0.0
18/07:30am 14.6 15.0 12.5 87 1.2 WSW 2 6 1 3 1011.0 1007.8 0.0
18/07:00am 12.6 12.5 12.0 96 0.3 WSW 4 7 2 4 1011.3 1008.1 0.0
18/06:30am 11.4 10.5 11.2 99 0.1 WSW 7 11 4 6 1011.2 1008.0 0.0
18/06:00am 11.2 11.4 10.6 96 0.3 CALM 0 0 0 0 1010.1 1006.9 0.0
18/05:30am 11.4 10.4 11.1 98 0.2 SSW 7 7 4 4 1009.8 1006.6 0.0
18/05:00am 11.1 10.2 10.6 97 0.3 S 6 7 3 4 1009.8 1006.6 0.0
18/04:30am 11.5 10.5 10.9 96 0.3 NE 7 9 4 5 1009.6 1006.3 0.0
18/04:00am 12.1 12.6 11.5 96 0.3 CALM 0 6 0 3 1009.4 1006.1 0.0
18/03:30am 11.2 10.0 10.3 94 0.5 WSW 7 9 4 5 1009.4 1006.1 0.0
18/03:00am 12.0 11.1 10.7 92 0.7 NE 6 9 3 5 1009.4 1006.1 0.0
18/02:30am 12.5 11.7 10.9 90 0.9 NE 6 9 3 5 1009.9 1006.7 0.0
18/02:00am 12.5 11.6 10.7 89 1.0 N 6 7 3 4 1010.4 1007.1 0.0
18/01:30am 13.1 11.0 11.0 87 1.1 ENE 13 17 7 9 1010.1 1006.9 0.0
18/01:00am 13.8 12.1 11.3 85 1.4 ENE 11 15 6 8 1010.4 1007.1 0.0
18/12:30am 13.4 12.1 11.1 86 1.3 ENE 9 13 5 7 1010.6 1007.3 0.0
18/12:00am 13.1 12.2 10.6 85 1.4 N 6 9 3 5 1010.9 1007.7 0.0
 
Date/Time
EDT
Temp
°C
App
Temp
°C
Dew
Point
Rel
Hum
%
Delta-T
°C
Wind Press
QNH
hPa
Press
MSL
hPa
Rain
since 9 am
mm
Dir
 
Spd
km/h
Gust
km/h
Spd
kts
Gust
kts
17/11:30pm 14.6 13.2 10.8 78 2.1 E 9 15 5 8 1010.5 1007.2 0.0
17/11:00pm 14.9 13.5 10.9 77 2.2 ESE 9 13 5 7 1010.4 1007.1 0.0
17/10:30pm 15.4 14.0 11.0 75 2.4 E 9 15 5 8 1010.5 1007.2 0.0
17/10:00pm 16.1 12.9 11.1 72 2.8 ENE 19 24 10 13 1010.7 1007.4 0.0
17/09:30pm 17.0 15.5 10.6 66 3.5 E 9 13 5 7 1010.3 1007.0 0.0
17/09:00pm 16.8 13.4 10.6 67 3.4 SSE 19 26 10 14 1009.5 1006.2 0.0
17/08:30pm 19.7 15.6 2.1 31 8.4 SSW 13 15 7 8 1009.0 1005.7 0.0
17/08:00pm 21.7 17.4 0.8 25 9.9 SW 13 17 7 9 1008.6 1005.4 0.0
17/07:30pm 23.0 19.3 2.5 26 10.1 SW 11 15 6 8 1008.2 1004.9 0.0
17/07:00pm 25.9 19.7 -4.6 13 13.5 WNW 19 24 10 13 1007.6 1004.3 0.0
17/06:30pm 27.9 21.1 -5.2 11 14.7 W 22 30 12 16 1007.1 1003.8 0.0
17/06:00pm 28.4 21.4 -3.7 12 14.8 W 24 33 13 18 1006.9 1003.6 0.0
17/05:30pm 29.1 23.0 -2.1 13 14.8 W 20 30 11 16 1006.7 1003.4 0.0
17/05:00pm 29.1 21.4 -3.2 12 15.1 W 28 35 15 19 1006.6 1003.3 0.0
17/04:30pm 29.3 22.8 0.0 15 14.4 WNW 24 37 13 20 1006.8 1003.5 0.0
17/04:00pm 28.8 22.2 -0.4 15 14.3 W 24 35 13 19 1007.0 1003.7 0.0
17/03:30pm 29.1 21.1 -2.1 13 14.8 W 30 37 16 20 1007.2 1004.0 0.0
17/03:00pm 29.3 20.3 -3.0 12 15.1 WNW 35 44 19 24 1007.3 1004.1 0.0
17/02:30pm 29.9 20.8 -3.7 11 15.6 WNW 35 48 19 26 1007.2 1004.0 0.0
17/02:12pm 30.1 22.8 -0.3 14 15.0 WNW 28 46 15 25 1007.1 1003.8 0.0
17/02:00pm 29.8 21.2 -2.6 12 15.4 NW 33 43 18 23 1007.0 1003.7 0.0
17/01:30pm 29.1 23.6 0.7 16 14.1 WNW 19 30 10 16 1007.1 1003.8 0.0
17/01:00pm 28.1 24.5 5.0 23 12.3 NW 13 22 7 12 1007.3 1004.1 0.0
17/12:30pm 26.6 22.5 4.4 24 11.6 W 15 22 8 12 1007.8 1004.5 0.0
17/12:00pm 26.0 21.2 5.6 27 10.9 W 20 30 11 16 1007.9 1004.6 0.0
17/11:30am 24.9 20.2 3.0 24 11.0 WNW 17 28 9 15 1008.2 1004.9 0.0
17/11:00am 24.3 20.7 5.1 29 10.0 WNW 13 20 7 11 1008.2 1004.9 0.0
17/10:30am 23.3 20.6 5.7 32 9.2 W 9 17 5 9 1008.2 1004.9 0.0
17/10:00am 22.2 19.6 6.0 35 8.5 W 9 17 5 9 1008.2 1004.9 0.0
17/09:30am 21.6 17.5 4.2 32 8.8 W 15 20 8 11 1008.3 1005.0 0.0
17/09:00am 20.6 18.7 6.5 40 7.4 WSW 6 11 3 6 1008.1 1004.8 0.0
17/08:30am 19.9 18.2 8.3 47 6.3 WSW 7 11 4 6 1008.0 1004.7 0.0
17/08:00am 18.7 16.6 8.1 50 5.7 WSW 9 13 5 7 1007.7 1004.4 0.0
17/07:30am 17.8 16.1 8.4 54 5.0 SW 7 11 4 6 1007.7 1004.4 0.0
17/07:00am 16.7 14.6 8.1 57 4.5 WSW 9 11 5 6 1007.1 1003.8 0.0
17/06:30am 14.9 13.1 7.2 60 3.9 WSW 6 9 3 5 1006.7 1003.4 0.0
17/06:00am 14.4 13.5 6.0 57 4.2 CALM 0 0 0 0 1006.1 1002.8 0.0
17/05:30am 14.2 11.2 6.1 58 4.0 SW 11 13 6 7 1005.5 1002.2 0.0
17/05:00am 15.1 11.6 5.6 53 4.7 SSW 13 15 7 8 1005.4 1002.1 0.0
17/04:30am 16.0 13.1 4.4 46 5.7 SW 9 11 5 6 1004.8 1001.4 0.0
17/04:00am 17.2 15.8 3.8 41 6.5 CALM 0 0 0 0 1004.4 1001.1 0.0
17/03:30am 17.1 14.5 3.4 40 6.6 SW 6 7 3 4 1004.2 1000.9 0.0
17/03:00am 17.7 15.1 3.2 38 7.0 N 6 9 3 5 1003.5 1000.1 0.0
17/02:30am 15.4 12.1 2.6 42 6.0 NNE 9 13 5 7 1003.7 1000.4 0.0
17/02:00am 18.5 15.6 1.5 32 8.0 NE 6 7 3 4 1004.0 1000.7 0.0
17/01:30am 17.8 14.6 0.5 31 7.9 S 7 11 4 6 1004.0 1000.7 0.0
17/01:00am 19.6 17.6 -0.4 26 9.1 CALM 0 0 0 0 1003.7 1000.4 0.0
17/12:30am 17.9 14.9 0.6 31 7.9 SSW 6 7 3 4 1003.8 1000.5 0.0
17/12:00am 16.3 12.0 1.2 36 6.9 NNE 13 13 7 7 1003.9 1000.6 0.0
 
Date/Time
EDT
Temp
°C
App
Temp
°C
Dew
Point
Rel
Hum
%
Delta-T
°C
Wind Press
QNH
hPa
Press
MSL
hPa
Rain
since 9 am
mm
Dir
 
Spd
km/h
Gust
km/h
Spd
kts
Gust
kts
16/11:30pm 17.5 13.4 -0.2 30 7.9 N 11 19 6 10 1004.1 1000.8 0.0
16/11:00pm 18.8 15.0 -0.6 27 8.8 NNE 9 11 5 6 1004.0 1000.7 0.0
16/10:30pm 19.0 15.2 -0.4 27 8.8 NNE 9 11 5 6 1004.1 1000.8 0.0
16/10:00pm 19.7 16.3 -0.9 25 9.3 N 7 9 4 5 1004.3 1001.0 0.0
16/09:30pm 21.3 18.3 -1.9 21 10.4 NNW 4 6 2 3 1004.3 1001.0 0.0
16/09:00pm 22.5 19.4 -3.0 18 11.4 WSW 4 7 2 4 1004.1 1000.8 0.0
16/08:30pm 23.9 19.6 -1.8 18 11.8 W 11 13 6 7 1003.9 1000.6 0.0
16/08:00pm 25.9 21.0 -3.6 14 13.4 W 13 20 7 11 1003.5 1000.1 0.0
16/07:30pm 28.4 22.0 -4.9 11 15.0 W 20 30 11 16 1003.4 1000.0 0.0
16/07:00pm 29.8 21.1 -5.1 10 15.9 WSW 32 48 17 26 1003.2 999.8 0.0

Other Formats:

Comma delimited format used in spreadsheet applications
http://www.bom.gov.au/fwo/IDN60801/IDN60801.94729.axf

JavaScript Object Notation format (JSON) in row-major order
http://www.bom.gov.au/fwo/IDN60801/IDN60801.94729.json